sensor_id;sensor_type;location;lat;lon;timestamp;temperature;humidity
29345;DHT22;16339;48.748;2.222;2023-12-20T00:02:02;11.00;99.90
29345;DHT22;16339;48.748;2.222;2023-12-20T00:04:32;11.00;99.90
29345;DHT22;16339;48.748;2.222;2023-12-20T00:07:04;11.00;99.90
29345;DHT22;16339;48.748;2.222;2023-12-20T00:09:36;11.00;99.90
29345;DHT22;16339;48.748;2.222;2023-12-20T00:12:06;11.10;99.90
29345;DHT22;16339;48.748;2.222;2023-12-20T00:14:38;11.10;99.90
29345;DHT22;16339;48.748;2.222;2023-12-20T00:17:07;11.10;99.90
29345;DHT22;16339;48.748;2.222;2023-12-20T00:19:36;11.00;99.90
29345;DHT22;16339;48.748;2.222;2023-12-20T00:22:09;11.10;99.90
29345;DHT22;16339;48.748;2.222;2023-12-20T00:24:43;10.80;99.90
29345;DHT22;16339;48.748;2.222;2023-12-20T00:27:14;11.00;99.90
29345;DHT22;16339;48.748;2.222;2023-12-20T00:29:46;11.10;99.90
29345;DHT22;16339;48.748;2.222;2023-12-20T00:32:18;11.00;99.90
29345;DHT22;16339;48.748;2.222;2023-12-20T00:34:49;10.80;99.90
29345;DHT22;16339;48.748;2.222;2023-12-20T00:37:21;10.90;99.90
29345;DHT22;16339;48.748;2.222;2023-12-20T00:39:52;10.80;99.90
29345;DHT22;16339;48.748;2.222;2023-12-20T00:42:21;10.90;99.90
29345;DHT22;16339;48.748;2.222;2023-12-20T00:44:53;10.90;99.90
29345;DHT22;16339;48.748;2.222;2023-12-20T00:47:22;10.80;99.90
29345;DHT22;16339;48.748;2.222;2023-12-20T00:49:50;10.70;99.90
29345;DHT22;16339;48.748;2.222;2023-12-20T00:52:19;10.60;99.90
29345;DHT22;16339;48.748;2.222;2023-12-20T00:54:54;10.70;99.90
29345;DHT22;16339;48.748;2.222;2023-12-20T00:57:24;10.60;99.90
29345;DHT22;16339;48.748;2.222;2023-12-20T00:59:59;10.60;99.90
29345;DHT22;16339;48.748;2.222;2023-12-20T01:02:30;10.70;99.90
29345;DHT22;16339;48.748;2.222;2023-12-20T01:05:00;10.50;99.90
29345;DHT22;16339;48.748;2.222;2023-12-20T01:07:35;10.50;99.90
29345;DHT22;16339;48.748;2.222;2023-12-20T01:10:07;10.50;99.90
29345;DHT22;16339;48.748;2.222;2023-12-20T01:12:41;10.50;99.90
29345;DHT22;16339;48.748;2.222;2023-12-20T01:15:10;10.50;99.90
29345;DHT22;16339;48.748;2.222;2023-12-20T01:17:39;10.60;99.90
29345;DHT22;16339;48.748;2.222;2023-12-20T01:20:11;10.60;99.90
29345;DHT22;16339;48.748;2.222;2023-12-20T01:22:39;10.70;99.90
29345;DHT22;16339;48.748;2.222;2023-12-20T01:25:15;10.40;99.90
29345;DHT22;16339;48.748;2.222;2023-12-20T01:27:44;10.40;99.90
29345;DHT22;16339;48.748;2.222;2023-12-20T01:30:14;10.30;99.90
29345;DHT22;16339;48.748;2.222;2023-12-20T01:32:43;10.40;99.90
29345;DHT22;16339;48.748;2.222;2023-12-20T01:35:12;10.40;99.90
29345;DHT22;16339;48.748;2.222;2023-12-20T01:37:41;10.30;99.90
29345;DHT22;16339;48.748;2.222;2023-12-20T01:43:30;10.00;99.90
29345;DHT22;16339;48.748;2.222;2023-12-20T01:46:13;9.80;99.90
29345;DHT22;16339;48.748;2.222;2023-12-20T01:48:45;9.90;99.90
29345;DHT22;16339;48.748;2.222;2023-12-20T01:51:19;10.00;99.90
29345;DHT22;16339;48.748;2.222;2023-12-20T01:53:49;9.90;99.90
29345;DHT22;16339;48.748;2.222;2023-12-20T01:56:25;10.10;99.90
29345;DHT22;16339;48.748;2.222;2023-12-20T01:58:57;9.80;99.90
29345;DHT22;16339;48.748;2.222;2023-12-20T02:01:30;10.00;99.90
29345;DHT22;16339;48.748;2.222;2023-12-20T02:03:59;10.10;99.90
29345;DHT22;16339;48.748;2.222;2023-12-20T02:06:32;10.20;99.90
29345;DHT22;16339;48.748;2.222;2023-12-20T02:09:03;10.30;99.90
29345;DHT22;16339;48.748;2.222;2023-12-20T02:11:33;10.40;99.90
29345;DHT22;16339;48.748;2.222;2023-12-20T02:14:06;10.40;99.90
29345;DHT22;16339;48.748;2.222;2023-12-20T02:16:37;10.40;99.90
29345;DHT22;16339;48.748;2.222;2023-12-20T02:19:10;10.50;99.90
29345;DHT22;16339;48.748;2.222;2023-12-20T02:21:47;10.60;99.90
29345;DHT22;16339;48.748;2.222;2023-12-20T02:24:23;10.70;99.90
29345;DHT22;16339;48.748;2.222;2023-12-20T02:26:57;10.70;99.90
29345;DHT22;16339;48.748;2.222;2023-12-20T02:29:31;10.70;99.90
29345;DHT22;16339;48.748;2.222;2023-12-20T02:32:00;10.70;99.90
29345;DHT22;16339;48.748;2.222;2023-12-20T02:34:29;10.70;99.90
29345;DHT22;16339;48.748;2.222;2023-12-20T02:37:05;10.80;99.90
29345;DHT22;16339;48.748;2.222;2023-12-20T02:39:37;10.80;99.90
29345;DHT22;16339;48.748;2.222;2023-12-20T02:42:07;10.80;99.90
29345;DHT22;16339;48.748;2.222;2023-12-20T02:44:36;10.80;99.90
29345;DHT22;16339;48.748;2.222;2023-12-20T02:47:05;10.80;99.90
29345;DHT22;16339;48.748;2.222;2023-12-20T02:49:33;10.80;99.90
29345;DHT22;16339;48.748;2.222;2023-12-20T02:52:06;10.80;99.90
29345;DHT22;16339;48.748;2.222;2023-12-20T02:54:38;10.70;99.90
29345;DHT22;16339;48.748;2.222;2023-12-20T02:57:07;10.70;99.90
29345;DHT22;16339;48.748;2.222;2023-12-20T02:59:40;10.70;99.90
29345;DHT22;16339;48.748;2.222;2023-12-20T03:02:09;10.60;99.90
29345;DHT22;16339;48.748;2.222;2023-12-20T03:04:40;10.60;99.90
29345;DHT22;16339;48.748;2.222;2023-12-20T03:07:12;10.60;99.90
29345;DHT22;16339;48.748;2.222;2023-12-20T03:09:52;10.50;99.90
29345;DHT22;16339;48.748;2.222;2023-12-20T03:12:35;10.50;99.90
29345;DHT22;16339;48.748;2.222;2023-12-20T03:15:13;10.40;99.90
29345;DHT22;16339;48.748;2.222;2023-12-20T03:17:51;10.40;99.90
29345;DHT22;16339;48.748;2.222;2023-12-20T03:20:27;10.40;99.90
29345;DHT22;16339;48.748;2.222;2023-12-20T03:23:04;10.40;99.90
29345;DHT22;16339;48.748;2.222;2023-12-20T03:25:35;10.40;99.90
29345;DHT22;16339;48.748;2.222;2023-12-20T03:28:14;10.30;99.90
29345;DHT22;16339;48.748;2.222;2023-12-20T03:30:45;10.30;99.90
29345;DHT22;16339;48.748;2.222;2023-12-20T03:33:13;10.30;99.90
29345;DHT22;16339;48.748;2.222;2023-12-20T03:35:42;10.30;99.90
29345;DHT22;16339;48.748;2.222;2023-12-20T03:38:13;10.20;99.90
29345;DHT22;16339;48.748;2.222;2023-12-20T03:43:40;10.20;99.90
29345;DHT22;16339;48.748;2.222;2023-12-20T03:46:11;10.10;99.90
29345;DHT22;16339;48.748;2.222;2023-12-20T03:48:41;10.10;99.90
29345;DHT22;16339;48.748;2.222;2023-12-20T03:51:13;10.00;99.90
29345;DHT22;16339;48.748;2.222;2023-12-20T03:53:44;10.00;99.90
29345;DHT22;16339;48.748;2.222;2023-12-20T03:56:13;10.00;99.90
29345;DHT22;16339;48.748;2.222;2023-12-20T03:58:42;10.00;99.90
29345;DHT22;16339;48.748;2.222;2023-12-20T04:01:13;10.00;99.90
29345;DHT22;16339;48.748;2.222;2023-12-20T04:03:42;9.90;99.90
29345;DHT22;16339;48.748;2.222;2023-12-20T04:06:16;9.90;99.90
29345;DHT22;16339;48.748;2.222;2023-12-20T04:12:10;9.80;99.90
29345;DHT22;16339;48.748;2.222;2023-12-20T04:18:26;9.70;99.90
29345;DHT22;16339;48.748;2.222;2023-12-20T04:20:57;9.70;99.90
29345;DHT22;16339;48.748;2.222;2023-12-20T04:23:28;9.70;99.90
29345;DHT22;16339;48.748;2.222;2023-12-20T04:25:59;9.60;99.90
29345;DHT22;16339;48.748;2.222;2023-12-20T04:28:28;9.60;99.90
29345;DHT22;16339;48.748;2.222;2023-12-20T04:30:57;9.70;99.90
29345;DHT22;16339;48.748;2.222;2023-12-20T04:33:26;9.60;99.90
29345;DHT22;16339;48.748;2.222;2023-12-20T04:35:54;9.60;99.90
29345;DHT22;16339;48.748;2.222;2023-12-20T04:38:23;9.60;99.90
29345;DHT22;16339;48.748;2.222;2023-12-20T04:40:52;9.50;99.90
29345;DHT22;16339;48.748;2.222;2023-12-20T04:43:25;9.50;99.90
29345;DHT22;16339;48.748;2.222;2023-12-20T04:45:55;9.40;99.90
29345;DHT22;16339;48.748;2.222;2023-12-20T04:48:24;9.40;99.90
29345;DHT22;16339;48.748;2.222;2023-12-20T04:50:55;9.40;99.90
29345;DHT22;16339;48.748;2.222;2023-12-20T04:53:24;9.30;99.90
29345;DHT22;16339;48.748;2.222;2023-12-20T04:55:53;9.30;99.90
29345;DHT22;16339;48.748;2.222;2023-12-20T04:58:26;9.30;99.90
29345;DHT22;16339;48.748;2.222;2023-12-20T05:00:55;9.30;99.90
29345;DHT22;16339;48.748;2.222;2023-12-20T05:03:24;9.30;99.90
29345;DHT22;16339;48.748;2.222;2023-12-20T05:05:53;9.30;99.90
29345;DHT22;16339;48.748;2.222;2023-12-20T05:08:22;9.30;99.90
29345;DHT22;16339;48.748;2.222;2023-12-20T05:10:50;9.30;99.90
29345;DHT22;16339;48.748;2.222;2023-12-20T05:13:19;9.30;99.90
29345;DHT22;16339;48.748;2.222;2023-12-20T05:15:53;9.30;99.90
29345;DHT22;16339;48.748;2.222;2023-12-20T05:18:22;9.30;99.90
29345;DHT22;16339;48.748;2.222;2023-12-20T05:20:51;9.20;99.90
29345;DHT22;16339;48.748;2.222;2023-12-20T05:23:20;9.30;99.90
29345;DHT22;16339;48.748;2.222;2023-12-20T05:25:49;9.30;99.90
29345;DHT22;16339;48.748;2.222;2023-12-20T05:28:18;9.30;99.90
29345;DHT22;16339;48.748;2.222;2023-12-20T05:30:47;9.30;99.90
29345;DHT22;16339;48.748;2.222;2023-12-20T05:33:18;9.30;99.90
29345;DHT22;16339;48.748;2.222;2023-12-20T05:35:48;9.20;99.90
29345;DHT22;16339;48.748;2.222;2023-12-20T05:38:17;9.20;99.90
29345;DHT22;16339;48.748;2.222;2023-12-20T05:40:59;9.20;99.90
29345;DHT22;16339;48.748;2.222;2023-12-20T05:43:33;9.20;99.90
29345;DHT22;16339;48.748;2.222;2023-12-20T05:46:04;9.10;99.90
29345;DHT22;16339;48.748;2.222;2023-12-20T05:48:36;9.20;99.90
29345;DHT22;16339;48.748;2.222;2023-12-20T05:51:05;9.10;99.90
29345;DHT22;16339;48.748;2.222;2023-12-20T05:53:33;9.10;99.90
29345;DHT22;16339;48.748;2.222;2023-12-20T05:56:03;9.10;99.90
29345;DHT22;16339;48.748;2.222;2023-12-20T05:58:35;9.10;99.90
29345;DHT22;16339;48.748;2.222;2023-12-20T06:01:04;9.00;99.90
29345;DHT22;16339;48.748;2.222;2023-12-20T06:03:36;9.00;99.90
29345;DHT22;16339;48.748;2.222;2023-12-20T06:06:06;9.00;99.90
29345;DHT22;16339;48.748;2.222;2023-12-20T06:08:36;9.00;99.90
29345;DHT22;16339;48.748;2.222;2023-12-20T06:11:04;9.00;99.90
29345;DHT22;16339;48.748;2.222;2023-12-20T06:13:33;9.00;99.90
29345;DHT22;16339;48.748;2.222;2023-12-20T06:16:03;9.00;99.90
29345;DHT22;16339;48.748;2.222;2023-12-20T06:18:32;9.00;99.90
29345;DHT22;16339;48.748;2.222;2023-12-20T06:21:05;9.00;99.90
29345;DHT22;16339;48.748;2.222;2023-12-20T06:23:33;9.00;99.90
29345;DHT22;16339;48.748;2.222;2023-12-20T06:26:04;9.00;99.90
29345;DHT22;16339;48.748;2.222;2023-12-20T06:28:33;9.00;99.90
29345;DHT22;16339;48.748;2.222;2023-12-20T06:31:02;8.90;99.90
29345;DHT22;16339;48.748;2.222;2023-12-20T06:33:30;9.00;99.90
29345;DHT22;16339;48.748;2.222;2023-12-20T06:35:59;9.00;99.90
29345;DHT22;16339;48.748;2.222;2023-12-20T06:38:31;9.00;99.90
29345;DHT22;16339;48.748;2.222;2023-12-20T06:41:00;8.90;99.90
29345;DHT22;16339;48.748;2.222;2023-12-20T06:43:28;8.90;99.90
29345;DHT22;16339;48.748;2.222;2023-12-20T06:45:58;8.90;99.90
29345;DHT22;16339;48.748;2.222;2023-12-20T06:48:26;8.90;99.90
29345;DHT22;16339;48.748;2.222;2023-12-20T06:50:55;8.80;99.90
29345;DHT22;16339;48.748;2.222;2023-12-20T06:53:24;8.80;99.90
29345;DHT22;16339;48.748;2.222;2023-12-20T06:55:56;8.80;99.90
29345;DHT22;16339;48.748;2.222;2023-12-20T06:58:24;8.80;99.90
29345;DHT22;16339;48.748;2.222;2023-12-20T07:00:53;8.80;99.90
29345;DHT22;16339;48.748;2.222;2023-12-20T07:03:22;8.70;99.90
29345;DHT22;16339;48.748;2.222;2023-12-20T07:05:50;8.70;99.90
29345;DHT22;16339;48.748;2.222;2023-12-20T07:08:19;8.70;99.90
29345;DHT22;16339;48.748;2.222;2023-12-20T07:10:50;8.70;99.90
29345;DHT22;16339;48.748;2.222;2023-12-20T07:13:21;8.70;99.90
29345;DHT22;16339;48.748;2.222;2023-12-20T07:15:55;8.60;99.90
29345;DHT22;16339;48.748;2.222;2023-12-20T07:18:28;8.70;99.90
29345;DHT22;16339;48.748;2.222;2023-12-20T07:20:57;8.70;99.90
29345;DHT22;16339;48.748;2.222;2023-12-20T07:23:26;8.70;99.90
29345;DHT22;16339;48.748;2.222;2023-12-20T07:25:55;8.70;99.90
29345;DHT22;16339;48.748;2.222;2023-12-20T07:28:26;8.70;99.90
29345;DHT22;16339;48.748;2.222;2023-12-20T07:30:55;8.70;99.90
29345;DHT22;16339;48.748;2.222;2023-12-20T07:33:24;8.70;99.90
29345;DHT22;16339;48.748;2.222;2023-12-20T07:35:52;8.70;99.90
29345;DHT22;16339;48.748;2.222;2023-12-20T07:38:22;8.70;99.90
29345;DHT22;16339;48.748;2.222;2023-12-20T07:40:50;8.60;99.90
29345;DHT22;16339;48.748;2.222;2023-12-20T07:43:19;8.60;99.90
29345;DHT22;16339;48.748;2.222;2023-12-20T07:45:51;8.70;99.90
29345;DHT22;16339;48.748;2.222;2023-12-20T07:48:19;8.70;99.90
29345;DHT22;16339;48.748;2.222;2023-12-20T07:50:48;8.70;99.90
29345;DHT22;16339;48.748;2.222;2023-12-20T07:53:18;8.70;99.90
29345;DHT22;16339;48.748;2.222;2023-12-20T07:55:47;8.70;99.90
29345;DHT22;16339;48.748;2.222;2023-12-20T07:58:18;8.70;99.90
29345;DHT22;16339;48.748;2.222;2023-12-20T08:00:50;8.70;99.90
29345;DHT22;16339;48.748;2.222;2023-12-20T08:03:18;8.70;99.90
29345;DHT22;16339;48.748;2.222;2023-12-20T08:05:47;8.70;99.90
29345;DHT22;16339;48.748;2.222;2023-12-20T08:08:16;8.70;99.90
29345;DHT22;16339;48.748;2.222;2023-12-20T08:10:44;8.70;99.90
29345;DHT22;16339;48.748;2.222;2023-12-20T08:13:13;8.60;99.90
29345;DHT22;16339;48.748;2.222;2023-12-20T08:15:42;8.60;99.90
29345;DHT22;16339;48.748;2.222;2023-12-20T08:18:13;8.60;99.90
29345;DHT22;16339;48.748;2.222;2023-12-20T08:20:42;8.60;99.90
29345;DHT22;16339;48.748;2.222;2023-12-20T08:23:11;8.70;99.90
29345;DHT22;16339;48.748;2.222;2023-12-20T08:25:39;8.60;99.90
29345;DHT22;16339;48.748;2.222;2023-12-20T08:28:08;8.70;99.90
29345;DHT22;16339;48.748;2.222;2023-12-20T08:30:37;8.70;99.90
29345;DHT22;16339;48.748;2.222;2023-12-20T08:33:06;8.70;99.90
29345;DHT22;16339;48.748;2.222;2023-12-20T08:35:40;8.70;99.90
29345;DHT22;16339;48.748;2.222;2023-12-20T08:38:09;8.70;99.90
29345;DHT22;16339;48.748;2.222;2023-12-20T08:40:38;8.80;99.90
29345;DHT22;16339;48.748;2.222;2023-12-20T08:43:07;8.80;99.90
29345;DHT22;16339;48.748;2.222;2023-12-20T08:45:36;8.80;99.90
29345;DHT22;16339;48.748;2.222;2023-12-20T08:48:05;8.80;99.90
29345;DHT22;16339;48.748;2.222;2023-12-20T08:50:34;8.80;99.90
29345;DHT22;16339;48.748;2.222;2023-12-20T08:53:05;8.80;99.90
29345;DHT22;16339;48.748;2.222;2023-12-20T08:55:34;8.90;99.90
29345;DHT22;16339;48.748;2.222;2023-12-20T08:58:03;8.90;99.90
29345;DHT22;16339;48.748;2.222;2023-12-20T09:00:33;8.90;99.90
29345;DHT22;16339;48.748;2.222;2023-12-20T09:03:02;9.00;99.90
29345;DHT22;16339;48.748;2.222;2023-12-20T09:05:31;9.00;99.90
29345;DHT22;16339;48.748;2.222;2023-12-20T09:08:00;9.00;99.90
29345;DHT22;16339;48.748;2.222;2023-12-20T09:10:32;9.20;99.90
29345;DHT22;16339;48.748;2.222;2023-12-20T09:13:01;9.20;99.90
29345;DHT22;16339;48.748;2.222;2023-12-20T09:15:30;9.20;99.90
29345;DHT22;16339;48.748;2.222;2023-12-20T09:17:59;9.20;99.90
29345;DHT22;16339;48.748;2.222;2023-12-20T09:20:29;9.10;99.90
29345;DHT22;16339;48.748;2.222;2023-12-20T09:22:58;9.20;99.90
29345;DHT22;16339;48.748;2.222;2023-12-20T09:25:27;9.40;99.90
29345;DHT22;16339;48.748;2.222;2023-12-20T09:28:00;9.50;99.90
29345;DHT22;16339;48.748;2.222;2023-12-20T09:30:28;9.70;99.90
29345;DHT22;16339;48.748;2.222;2023-12-20T09:32:57;9.80;99.90
29345;DHT22;16339;48.748;2.222;2023-12-20T09:35:26;9.90;99.90
29345;DHT22;16339;48.748;2.222;2023-12-20T09:37:55;10.00;99.90
29345;DHT22;16339;48.748;2.222;2023-12-20T09:40:26;10.10;99.90
29345;DHT22;16339;48.748;2.222;2023-12-20T09:43:02;10.10;99.90
29345;DHT22;16339;48.748;2.222;2023-12-20T09:45:31;10.10;99.90
29345;DHT22;16339;48.748;2.222;2023-12-20T09:48:00;10.10;99.90
29345;DHT22;16339;48.748;2.222;2023-12-20T09:50:30;10.10;99.90
29345;DHT22;16339;48.748;2.222;2023-12-20T09:53:01;10.20;99.90
29345;DHT22;16339;48.748;2.222;2023-12-20T09:55:30;9.90;99.90
29345;DHT22;16339;48.748;2.222;2023-12-20T09:58:03;9.90;99.90
29345;DHT22;16339;48.748;2.222;2023-12-20T10:00:34;9.80;99.90
29345;DHT22;16339;48.748;2.222;2023-12-20T10:03:04;9.80;99.90
29345;DHT22;16339;48.748;2.222;2023-12-20T10:05:34;9.80;99.90
29345;DHT22;16339;48.748;2.222;2023-12-20T10:08:04;9.90;99.90
29345;DHT22;16339;48.748;2.222;2023-12-20T10:10:33;9.80;99.90
29345;DHT22;16339;48.748;2.222;2023-12-20T10:13:06;10.00;99.90
29345;DHT22;16339;48.748;2.222;2023-12-20T10:15:35;10.00;99.90
29345;DHT22;16339;48.748;2.222;2023-12-20T10:18:04;9.80;99.90
29345;DHT22;16339;48.748;2.222;2023-12-20T10:20:33;9.90;99.90
29345;DHT22;16339;48.748;2.222;2023-12-20T10:23:03;10.00;99.90
29345;DHT22;16339;48.748;2.222;2023-12-20T10:25:31;10.00;99.90
29345;DHT22;16339;48.748;2.222;2023-12-20T10:28:14;9.70;99.90
29345;DHT22;16339;48.748;2.222;2023-12-20T10:30:45;9.90;99.90
29345;DHT22;16339;48.748;2.222;2023-12-20T10:33:15;10.00;99.90
29345;DHT22;16339;48.748;2.222;2023-12-20T10:35:52;10.00;99.90
29345;DHT22;16339;48.748;2.222;2023-12-20T10:38:21;10.00;99.90
29345;DHT22;16339;48.748;2.222;2023-12-20T10:40:54;10.20;99.90
29345;DHT22;16339;48.748;2.222;2023-12-20T10:43:26;10.20;99.90
29345;DHT22;16339;48.748;2.222;2023-12-20T10:45:57;10.40;99.90
29345;DHT22;16339;48.748;2.222;2023-12-20T10:48:27;10.30;99.90
29345;DHT22;16339;48.748;2.222;2023-12-20T10:50:58;10.10;99.90
29345;DHT22;16339;48.748;2.222;2023-12-20T10:53:26;10.20;99.90
29345;DHT22;16339;48.748;2.222;2023-12-20T10:56:00;10.20;99.90
29345;DHT22;16339;48.748;2.222;2023-12-20T10:58:34;10.30;99.90
29345;DHT22;16339;48.748;2.222;2023-12-20T11:01:04;10.50;99.90
29345;DHT22;16339;48.748;2.222;2023-12-20T11:03:36;10.30;99.90
29345;DHT22;16339;48.748;2.222;2023-12-20T11:06:05;10.30;99.90
29345;DHT22;16339;48.748;2.222;2023-12-20T11:08:39;10.30;99.90
29345;DHT22;16339;48.748;2.222;2023-12-20T11:11:14;10.30;99.90
29345;DHT22;16339;48.748;2.222;2023-12-20T11:13:55;10.50;99.90
29345;DHT22;16339;48.748;2.222;2023-12-20T11:16:26;10.50;99.90
29345;DHT22;16339;48.748;2.222;2023-12-20T11:18:55;10.60;99.90
29345;DHT22;16339;48.748;2.222;2023-12-20T11:21:24;10.50;99.90
29345;DHT22;16339;48.748;2.222;2023-12-20T11:23:53;10.50;99.90
29345;DHT22;16339;48.748;2.222;2023-12-20T11:26:26;10.60;99.90
29345;DHT22;16339;48.748;2.222;2023-12-20T11:29:30;10.60;99.90
29345;DHT22;16339;48.748;2.222;2023-12-20T11:32:01;10.40;99.90
29345;DHT22;16339;48.748;2.222;2023-12-20T11:34:33;10.30;99.90
29345;DHT22;16339;48.748;2.222;2023-12-20T11:37:05;10.40;99.90
29345;DHT22;16339;48.748;2.222;2023-12-20T11:39:36;10.50;99.90
29345;DHT22;16339;48.748;2.222;2023-12-20T11:42:05;10.50;99.90
29345;DHT22;16339;48.748;2.222;2023-12-20T11:44:37;10.60;99.90
29345;DHT22;16339;48.748;2.222;2023-12-20T11:47:06;10.70;99.90
29345;DHT22;16339;48.748;2.222;2023-12-20T11:49:35;10.80;99.90
29345;DHT22;16339;48.748;2.222;2023-12-20T11:52:04;10.60;99.90
29345;DHT22;16339;48.748;2.222;2023-12-20T11:54:33;10.60;99.90
29345;DHT22;16339;48.748;2.222;2023-12-20T11:57:02;10.70;99.90
29345;DHT22;16339;48.748;2.222;2023-12-20T11:59:31;10.90;99.90
29345;DHT22;16339;48.748;2.222;2023-12-20T12:02:02;10.90;99.90
29345;DHT22;16339;48.748;2.222;2023-12-20T12:04:31;10.90;99.90
29345;DHT22;16339;48.748;2.222;2023-12-20T12:06:59;10.80;99.90
29345;DHT22;16339;48.748;2.222;2023-12-20T12:09:29;10.80;99.90
29345;DHT22;16339;48.748;2.222;2023-12-20T12:11:57;10.80;99.90
29345;DHT22;16339;48.748;2.222;2023-12-20T12:14:27;10.80;99.90
29345;DHT22;16339;48.748;2.222;2023-12-20T12:16:56;10.70;99.90
29345;DHT22;16339;48.748;2.222;2023-12-20T12:19:27;10.90;99.90
29345;DHT22;16339;48.748;2.222;2023-12-20T12:22:08;11.10;99.90
29345;DHT22;16339;48.748;2.222;2023-12-20T12:24:39;11.00;99.90
29345;DHT22;16339;48.748;2.222;2023-12-20T12:27:08;11.00;99.90
29345;DHT22;16339;48.748;2.222;2023-12-20T12:29:37;11.00;99.90
29345;DHT22;16339;48.748;2.222;2023-12-20T12:32:07;11.10;99.90
29345;DHT22;16339;48.748;2.222;2023-12-20T12:34:38;11.20;99.90
29345;DHT22;16339;48.748;2.222;2023-12-20T12:37:08;11.10;99.90
29345;DHT22;16339;48.748;2.222;2023-12-20T12:39:38;11.20;99.90
29345;DHT22;16339;48.748;2.222;2023-12-20T12:42:09;11.10;99.90
29345;DHT22;16339;48.748;2.222;2023-12-20T12:44:38;11.00;99.90
29345;DHT22;16339;48.748;2.222;2023-12-20T12:47:07;11.10;99.90
29345;DHT22;16339;48.748;2.222;2023-12-20T12:49:40;11.10;99.90
29345;DHT22;16339;48.748;2.222;2023-12-20T12:52:08;11.10;99.90
29345;DHT22;16339;48.748;2.222;2023-12-20T12:54:40;11.20;99.90
29345;DHT22;16339;48.748;2.222;2023-12-20T12:57:10;11.10;99.90
29345;DHT22;16339;48.748;2.222;2023-12-20T12:59:39;11.20;99.90
29345;DHT22;16339;48.748;2.222;2023-12-20T13:02:12;11.20;99.90
29345;DHT22;16339;48.748;2.222;2023-12-20T13:04:44;11.30;99.90
29345;DHT22;16339;48.748;2.222;2023-12-20T13:07:12;11.30;99.90
29345;DHT22;16339;48.748;2.222;2023-12-20T13:09:42;11.40;99.90
29345;DHT22;16339;48.748;2.222;2023-12-20T13:12:10;11.50;99.90
29345;DHT22;16339;48.748;2.222;2023-12-20T13:14:39;11.40;99.90
29345;DHT22;16339;48.748;2.222;2023-12-20T13:17:08;11.40;99.90
29345;DHT22;16339;48.748;2.222;2023-12-20T13:19:36;11.30;99.90
29345;DHT22;16339;48.748;2.222;2023-12-20T13:22:08;11.30;99.90
29345;DHT22;16339;48.748;2.222;2023-12-20T13:24:37;11.30;99.90
29345;DHT22;16339;48.748;2.222;2023-12-20T13:27:06;11.50;99.90
29345;DHT22;16339;48.748;2.222;2023-12-20T13:29:34;11.50;99.90
29345;DHT22;16339;48.748;2.222;2023-12-20T13:32:04;11.70;99.90
29345;DHT22;16339;48.748;2.222;2023-12-20T13:34:33;11.50;99.90
29345;DHT22;16339;48.748;2.222;2023-12-20T13:37:02;11.60;99.90
29345;DHT22;16339;48.748;2.222;2023-12-20T13:39:33;11.50;99.90
29345;DHT22;16339;48.748;2.222;2023-12-20T13:42:02;11.50;99.90
29345;DHT22;16339;48.748;2.222;2023-12-20T13:44:31;11.50;99.90
29345;DHT22;16339;48.748;2.222;2023-12-20T13:46:59;11.30;99.90
29345;DHT22;16339;48.748;2.222;2023-12-20T13:49:29;11.40;99.90
29345;DHT22;16339;48.748;2.222;2023-12-20T13:51:58;11.30;99.90
29345;DHT22;16339;48.748;2.222;2023-12-20T13:54:26;11.40;99.90
29345;DHT22;16339;48.748;2.222;2023-12-20T13:56:58;11.40;99.90
29345;DHT22;16339;48.748;2.222;2023-12-20T13:59:26;11.50;99.90
29345;DHT22;16339;48.748;2.222;2023-12-20T14:01:55;11.40;99.90
29345;DHT22;16339;48.748;2.222;2023-12-20T14:04:29;11.50;99.90
29345;DHT22;16339;48.748;2.222;2023-12-20T14:06:58;11.60;99.90
29345;DHT22;16339;48.748;2.222;2023-12-20T14:09:26;11.60;99.90
29345;DHT22;16339;48.748;2.222;2023-12-20T14:11:58;11.50;99.90
29345;DHT22;16339;48.748;2.222;2023-12-20T14:14:24;11.50;99.90
29345;DHT22;16339;48.748;2.222;2023-12-20T14:16:52;11.60;99.90
29345;DHT22;16339;48.748;2.222;2023-12-20T14:19:21;11.60;99.90
29345;DHT22;16339;48.748;2.222;2023-12-20T14:21:50;11.70;99.90
29345;DHT22;16339;48.748;2.222;2023-12-20T14:24:20;11.70;99.90
29345;DHT22;16339;48.748;2.222;2023-12-20T14:26:50;11.70;99.90
29345;DHT22;16339;48.748;2.222;2023-12-20T14:29:22;11.70;99.90
29345;DHT22;16339;48.748;2.222;2023-12-20T14:31:51;11.70;99.90
29345;DHT22;16339;48.748;2.222;2023-12-20T14:34:19;11.70;99.90
29345;DHT22;16339;48.748;2.222;2023-12-20T14:36:49;11.80;99.90
29345;DHT22;16339;48.748;2.222;2023-12-20T14:39:18;11.80;99.90
29345;DHT22;16339;48.748;2.222;2023-12-20T14:41:48;11.60;99.90
29345;DHT22;16339;48.748;2.222;2023-12-20T14:44:17;11.70;99.90
29345;DHT22;16339;48.748;2.222;2023-12-20T14:46:50;11.70;99.90
29345;DHT22;16339;48.748;2.222;2023-12-20T14:49:19;11.70;99.90
29345;DHT22;16339;48.748;2.222;2023-12-20T14:51:47;11.70;99.90
29345;DHT22;16339;48.748;2.222;2023-12-20T14:54:16;11.70;99.90
29345;DHT22;16339;48.748;2.222;2023-12-20T14:56:46;11.80;99.90
29345;DHT22;16339;48.748;2.222;2023-12-20T14:59:15;11.70;99.90
29345;DHT22;16339;48.748;2.222;2023-12-20T15:01:44;11.80;99.90
29345;DHT22;16339;48.748;2.222;2023-12-20T15:04:15;11.60;99.90
29345;DHT22;16339;48.748;2.222;2023-12-20T15:06:44;11.60;99.90
29345;DHT22;16339;48.748;2.222;2023-12-20T15:09:13;11.60;99.90
29345;DHT22;16339;48.748;2.222;2023-12-20T15:11:41;11.60;99.90
29345;DHT22;16339;48.748;2.222;2023-12-20T15:14:12;11.70;99.90
29345;DHT22;16339;48.748;2.222;2023-12-20T15:16:44;11.70;99.90
29345;DHT22;16339;48.748;2.222;2023-12-20T15:19:16;11.70;99.90
29345;DHT22;16339;48.748;2.222;2023-12-20T15:21:44;11.70;99.90
29345;DHT22;16339;48.748;2.222;2023-12-20T15:24:13;11.60;99.90
29345;DHT22;16339;48.748;2.222;2023-12-20T15:26:45;11.70;99.90
29345;DHT22;16339;48.748;2.222;2023-12-20T15:29:14;11.70;99.90
29345;DHT22;16339;48.748;2.222;2023-12-20T15:31:43;11.60;99.90
29345;DHT22;16339;48.748;2.222;2023-12-20T15:34:15;11.50;99.90
29345;DHT22;16339;48.748;2.222;2023-12-20T15:36:43;11.60;99.90
29345;DHT22;16339;48.748;2.222;2023-12-20T15:39:12;11.60;99.90
29345;DHT22;16339;48.748;2.222;2023-12-20T15:41:42;11.50;99.90
29345;DHT22;16339;48.748;2.222;2023-12-20T15:44:11;11.60;99.90
29345;DHT22;16339;48.748;2.222;2023-12-20T15:46:39;11.70;99.90
29345;DHT22;16339;48.748;2.222;2023-12-20T15:49:08;11.60;99.90
29345;DHT22;16339;48.748;2.222;2023-12-20T15:51:40;11.50;99.90
29345;DHT22;16339;48.748;2.222;2023-12-20T15:54:08;11.60;99.90
29345;DHT22;16339;48.748;2.222;2023-12-20T15:56:37;11.60;99.90
29345;DHT22;16339;48.748;2.222;2023-12-20T15:59:07;11.50;99.90
29345;DHT22;16339;48.748;2.222;2023-12-20T16:01:36;11.50;99.90
29345;DHT22;16339;48.748;2.222;2023-12-20T16:04:07;11.70;99.90
29345;DHT22;16339;48.748;2.222;2023-12-20T16:06:35;11.60;99.90
29345;DHT22;16339;48.748;2.222;2023-12-20T16:09:07;11.70;99.90
29345;DHT22;16339;48.748;2.222;2023-12-20T16:11:36;11.80;99.90